createdAt,value
2018-09-04T00:01:09.257Z,78.35
2018-09-04T00:03:39.426Z,78.14
2018-09-04T00:06:09.531Z,78.38
2018-09-04T00:08:39.581Z,77.85
2018-09-04T00:11:09.634Z,79.87
2018-09-04T00:13:51.182Z,80.26
2018-09-04T00:16:21.410Z,79.90
2018-09-04T00:18:51.411Z,78.51
2018-09-04T00:21:21.457Z,77.98
2018-09-04T00:23:51.445Z,78.85
2018-09-04T00:26:21.511Z,79.51
2018-09-04T00:28:51.395Z,79.42
2018-09-04T00:31:21.467Z,79.71
2018-09-04T00:34:01.988Z,79.14
2018-09-04T00:36:38.679Z,77.92
2018-09-04T00:39:14.285Z,78.66
2018-09-04T00:41:48.657Z,78.25
2018-09-04T00:44:42.069Z,78.08
2018-09-04T00:47:19.664Z,77.36
2018-09-04T00:49:49.544Z,76.41
2018-09-04T00:52:19.831Z,79.19
2018-09-04T00:54:50.832Z,82.47
2018-09-04T00:57:20.911Z,80.43
2018-09-04T00:59:50.833Z,80.87
2018-09-04T01:02:34.782Z,80.91
2018-09-04T01:05:04.693Z,81.08
2018-09-04T01:07:34.542Z,80.38
2018-09-04T01:10:04.864Z,78.89
2018-09-04T01:12:35.214Z,77.50
2018-09-04T01:15:06.128Z,78.11
2018-09-04T01:20:45.745Z,79.66
2018-09-04T01:23:25.594Z,79.45
2018-09-04T01:26:19.436Z,80.09
2018-09-04T01:28:49.653Z,80.55
2018-09-04T01:31:27.839Z,80.66
2018-09-04T01:37:08.724Z,81.11
2018-09-04T01:46:05.988Z,83.51
2018-09-04T01:49:03.782Z,81.33
2018-09-04T01:51:33.702Z,81.87
2018-09-04T01:57:03.013Z,77.94
2018-09-04T02:02:32.917Z,83.21
2018-09-04T02:05:03.216Z,79.56
2018-09-04T02:07:33.327Z,78.50
2018-09-04T02:10:03.553Z,82.59
2018-09-04T02:18:43.613Z,81.29
2018-09-04T02:21:13.458Z,81.68
2018-09-04T02:23:43.308Z,80.89
2018-09-04T02:26:13.686Z,80.24
2018-09-04T02:28:56.994Z,80.70
2018-09-04T02:31:27.673Z,80.16
2018-09-04T02:33:58.005Z,79.80
2018-09-04T02:39:56.761Z,77.48
2018-09-04T02:42:27.016Z,82.34
2018-09-04T02:45:05.211Z,81.78
2018-09-04T02:47:37.394Z,81.33
2018-09-04T02:50:08.026Z,80.93
2018-09-04T02:52:54.286Z,83.18
2018-09-04T02:55:42.384Z,81.83
2018-09-04T02:58:12.305Z,83.74
2018-09-04T03:00:42.175Z,81.33
2018-09-04T03:03:24.416Z,79.58
2018-09-04T03:05:54.122Z,79.45
2018-09-04T03:11:28.861Z,83.08
2018-09-04T03:14:20.606Z,81.87
2018-09-04T03:16:50.645Z,83.19
2018-09-04T03:28:51.309Z,80.43
2018-09-04T03:31:22.934Z,79.94
2018-09-04T03:33:53.232Z,79.23
2018-09-04T03:39:34.121Z,79.89
2018-09-04T03:42:04.457Z,82.63
2018-09-04T03:44:34.542Z,82.30
2018-09-04T03:47:28.423Z,80.45
2018-09-04T03:49:58.393Z,79.52
2018-09-04T03:55:44.864Z,79.28
2018-09-04T03:58:41.614Z,79.34
2018-09-04T04:01:40.193Z,80.80
2018-09-04T04:04:10.383Z,79.95
2018-09-04T04:06:40.215Z,81.22
2018-09-04T04:09:11.918Z,80.84
2018-09-04T04:11:42.053Z,80.09
2018-09-04T04:17:34.703Z,82.73
2018-09-04T04:20:34.266Z,81.97
2018-09-04T04:23:18.720Z,80.35
2018-09-04T04:25:48.895Z,80.33
2018-09-04T04:28:19.249Z,80.77
2018-09-04T04:30:53.201Z,81.54
2018-09-04T04:33:23.443Z,80.89
2018-09-04T04:39:10.938Z,80.36
2018-09-04T04:41:59.349Z,81.29
2018-09-04T04:44:41.512Z,82.87
2018-09-04T04:59:51.220Z,78.41
2018-09-04T05:08:40.897Z,79.67
2018-09-04T05:11:11.109Z,79.49
2018-09-04T05:13:40.859Z,80.67
2018-09-04T05:16:11.239Z,80.29
2018-09-04T05:18:41.401Z,84.32
2018-09-04T05:21:17.142Z,81.84
2018-09-04T05:23:47.228Z,81.38
2018-09-04T05:26:39.281Z,83.64
2018-09-04T05:32:09.287Z,81.64
2018-09-04T05:34:39.751Z,81.05
2018-09-04T05:37:10.093Z,79.77
2018-09-04T05:39:41.153Z,79.29
2018-09-04T05:45:41.819Z,83.73
2018-09-04T05:48:13.956Z,82.73
2018-09-04T05:50:55.508Z,84.43
2018-09-04T05:53:25.716Z,84.80
2018-09-04T05:55:55.903Z,85.54
2018-09-04T05:58:26.136Z,82.62
2018-09-04T06:01:03.080Z,81.55
2018-09-04T06:03:48.710Z,80.97
2018-09-04T06:06:18.563Z,79.88
2018-09-04T06:08:49.008Z,79.99
2018-09-04T06:11:18.897Z,81.24
2018-09-04T06:23:09.276Z,80.35
2018-09-04T06:28:38.621Z,79.83
2018-09-04T06:31:10.581Z,79.85
2018-09-04T06:33:40.702Z,80.62
2018-09-04T06:36:10.498Z,82.96
2018-09-04T06:38:40.469Z,82.95
2018-09-04T06:41:10.432Z,81.24
2018-09-04T06:43:40.288Z,80.47
2018-09-04T06:46:10.176Z,81.27
2018-09-04T06:48:40.181Z,81.60
2018-09-04T06:54:26.386Z,80.87
2018-09-04T06:57:21.910Z,80.27
2018-09-04T07:02:51.301Z,84.33
2018-09-04T07:05:24.769Z,83.38
2018-09-04T07:07:54.999Z,87.94
2018-09-04T07:10:24.830Z,89.38
2018-09-04T07:13:04.129Z,89.37
2018-09-04T07:15:34.382Z,90.59
2018-09-04T07:18:09.633Z,89.11
2018-09-04T07:20:39.681Z,87.85
2018-09-04T07:23:10.048Z,86.61
2018-09-04T07:25:40.024Z,86.25
2018-09-04T07:28:10.325Z,87.56
2018-09-04T07:30:40.586Z,85.69
2018-09-04T07:33:11.137Z,86.34
2018-09-04T07:35:41.632Z,85.27
2018-09-04T07:38:11.719Z,84.71
2018-09-04T07:40:42.155Z,84.31
2018-09-04T07:43:12.408Z,84.05
2018-09-04T07:45:42.949Z,84.41
2018-09-04T07:48:13.172Z,83.34
2018-09-04T07:50:43.548Z,86.35
2018-09-04T07:53:13.619Z,84.13
2018-09-04T07:56:02.774Z,84.61
2018-09-04T07:58:33.776Z,84.18
2018-09-04T08:01:04.653Z,83.83
2018-09-04T08:03:35.465Z,83.53
2018-09-04T08:06:05.347Z,83.45
2018-09-04T08:08:35.490Z,82.97
2018-09-04T08:11:06.484Z,83.36
2018-09-04T08:13:36.316Z,84.33
2018-09-04T08:16:06.468Z,83.51
2018-09-04T08:21:46.842Z,84.04
2018-09-04T08:24:16.631Z,85.09
2018-09-04T08:26:46.612Z,84.18
2018-09-04T08:29:16.946Z,86.42
2018-09-04T08:34:47.566Z,84.32
2018-09-04T08:37:17.856Z,85.26
2018-09-04T08:39:49.550Z,83.06
2018-09-04T08:42:19.737Z,83.37
2018-09-04T08:44:50.980Z,81.46
2018-09-04T08:47:21.472Z,82.70
2018-09-04T08:49:54.600Z,82.44
2018-09-04T08:52:24.401Z,82.25
2018-09-04T08:54:54.567Z,81.80
2018-09-04T08:57:24.607Z,82.10
2018-09-04T08:59:55.012Z,83.29
2018-09-04T09:02:24.982Z,81.99
2018-09-04T09:04:56.176Z,81.56
2018-09-04T09:07:26.484Z,81.10
2018-09-04T09:09:56.693Z,82.96
2018-09-04T09:12:26.869Z,81.03
2018-09-04T09:14:56.994Z,81.48
2018-09-04T09:17:27.225Z,81.55
2018-09-04T09:23:03.403Z,81.39
2018-09-04T09:25:33.597Z,79.46
2018-09-04T09:28:10.970Z,80.19
2018-09-04T09:30:41.042Z,79.91
2018-09-04T09:33:12.104Z,80.16
2018-09-04T09:41:53.526Z,78.88
2018-09-04T09:44:23.327Z,79.60
2018-09-04T09:46:57.656Z,79.41
2018-09-04T09:49:39.637Z,80.11
2018-09-04T09:52:09.947Z,79.54
2018-09-04T09:54:40.227Z,79.64
2018-09-04T09:57:19.443Z,79.44
2018-09-04T09:59:50.297Z,78.11
2018-09-04T10:02:22.415Z,78.13
2018-09-04T10:04:52.635Z,76.80
2018-09-04T10:07:22.583Z,77.40
2018-09-04T10:09:52.597Z,77.82
2018-09-04T10:12:44.696Z,77.97
2018-09-04T10:15:14.981Z,76.39
2018-09-04T10:17:45.360Z,76.54
2018-09-04T10:23:15.913Z,76.10
2018-09-04T10:32:08.886Z,75.15
2018-09-04T10:37:49.729Z,75.09
2018-09-04T10:41:01.385Z,75.36
2018-09-04T10:46:41.540Z,74.25
2018-09-04T10:49:11.822Z,72.51
2018-09-04T10:51:41.799Z,72.75
2018-09-04T10:54:15.398Z,74.04
2018-09-04T11:02:41.496Z,71.30
2018-09-04T11:05:12.087Z,70.95
2018-09-04T11:07:42.815Z,69.65
2018-09-04T11:10:13.104Z,70.25
2018-09-04T11:12:43.286Z,70.27
2018-09-04T11:15:13.393Z,68.67
2018-09-04T11:17:43.512Z,68.68
2018-09-04T11:20:13.541Z,70.36
2018-09-04T11:25:27.561Z,66.02
2018-09-04T11:28:28.798Z,65.98
2018-09-04T11:34:09.080Z,66.56
2018-09-04T11:39:47.704Z,65.82
2018-09-04T11:44:56.374Z,63.92
2018-09-04T11:47:51.141Z,64.30
2018-09-04T11:50:21.281Z,64.18
2018-09-04T11:52:51.965Z,63.65
2018-09-04T11:55:23.744Z,63.92
2018-09-04T11:57:53.936Z,62.08
2018-09-04T12:00:40.970Z,62.01
2018-09-04T12:03:16.412Z,62.13
2018-09-04T12:05:46.725Z,61.41
2018-09-04T12:08:31.563Z,62.24
2018-09-04T12:11:11.742Z,61.95
2018-09-04T12:13:42.000Z,60.67
2018-09-04T12:16:15.201Z,62.25
2018-09-04T12:18:45.272Z,62.02
2018-09-04T12:21:26.296Z,61.52
2018-09-04T12:23:56.177Z,61.06
2018-09-04T12:26:26.301Z,61.04
2018-09-04T12:28:56.136Z,60.86
2018-09-04T12:31:26.571Z,61.39
2018-09-04T12:33:57.274Z,62.60
2018-09-04T12:36:27.397Z,60.88
2018-09-04T12:39:05.866Z,59.30
2018-09-04T12:41:36.061Z,59.29
2018-09-04T12:44:06.201Z,59.61
2018-09-04T12:46:36.390Z,57.98
2018-09-04T12:49:06.260Z,59.37
2018-09-04T12:51:42.328Z,59.26
2018-09-04T12:54:16.266Z,60.09
2018-09-04T12:56:46.436Z,60.45
2018-09-04T12:59:16.639Z,61.04
2018-09-04T13:01:48.052Z,61.07
2018-09-04T13:04:18.580Z,60.84
2018-09-04T13:06:49.513Z,59.38
2018-09-04T13:09:24.937Z,59.12
2018-09-04T13:11:55.042Z,59.10
2018-09-04T13:14:25.826Z,58.65
2018-09-04T13:16:55.731Z,58.56
2018-09-04T13:19:25.588Z,57.62
2018-09-04T13:28:02.526Z,58.36
2018-09-04T13:30:32.925Z,57.13
2018-09-04T13:33:03.063Z,54.43
2018-09-04T13:35:39.137Z,55.38
2018-09-04T13:38:13.288Z,54.33
2018-09-04T13:40:43.566Z,55.08
2018-09-04T13:43:13.648Z,53.30
2018-09-04T13:45:51.090Z,53.06
2018-09-04T13:51:31.554Z,54.08
2018-09-04T13:54:01.606Z,53.64
2018-09-04T13:56:31.895Z,53.87
2018-09-04T13:59:01.994Z,53.53
2018-09-04T14:07:31.971Z,52.71
2018-09-04T14:10:08.559Z,51.72
2018-09-04T14:15:49.518Z,52.81
2018-09-04T14:18:19.935Z,51.82
2018-09-04T14:21:14.388Z,51.48
2018-09-04T14:23:45.102Z,53.63
2018-09-04T14:26:15.288Z,52.37
2018-09-04T14:31:57.594Z,52.58
2018-09-04T14:34:27.926Z,53.22
2018-09-04T14:43:18.927Z,53.11
2018-09-04T14:45:49.688Z,54.04
2018-09-04T14:48:19.868Z,54.25
2018-09-04T14:50:49.836Z,54.96
2018-09-04T14:53:19.937Z,53.49
2018-09-04T14:55:50.634Z,54.36
2018-09-04T14:58:21.353Z,54.91
2018-09-04T15:00:51.730Z,55.73
2018-09-04T15:03:22.545Z,55.78
2018-09-04T15:12:02.133Z,56.62
2018-09-04T15:14:32.578Z,56.64
2018-09-04T15:17:02.743Z,55.79
2018-09-04T15:22:55.079Z,54.73
2018-09-04T15:25:25.438Z,55.73
2018-09-04T15:34:39.693Z,54.78
2018-09-04T15:37:09.677Z,55.60
2018-09-04T15:39:39.628Z,55.70
2018-09-04T15:42:09.427Z,57.67
2018-09-04T15:44:39.417Z,57.04
2018-09-04T15:47:09.401Z,58.34
2018-09-04T15:49:49.674Z,58.34
2018-09-04T15:56:04.882Z,58.69
2018-09-04T16:01:29.735Z,62.09
2018-09-04T16:03:59.708Z,61.29
2018-09-04T16:06:29.569Z,60.23
2018-09-04T16:08:59.623Z,60.51
2018-09-04T16:11:38.470Z,61.22
2018-09-04T16:14:09.236Z,62.04
2018-09-04T16:16:53.497Z,61.44
2018-09-04T16:19:23.981Z,60.87
2018-09-04T16:21:53.762Z,61.87
2018-09-04T16:24:24.125Z,61.34
2018-09-04T16:26:54.467Z,61.23
2018-09-04T16:31:58.856Z,60.36
2018-09-04T16:37:28.807Z,60.93
2018-09-04T16:40:06.365Z,62.29
2018-09-04T16:42:36.401Z,62.59
2018-09-04T16:45:06.555Z,65.11
2018-09-04T16:47:36.585Z,65.15
2018-09-04T16:50:10.238Z,63.39
2018-09-04T16:52:41.286Z,62.64
2018-09-04T16:55:11.198Z,62.59
2018-09-04T16:57:48.186Z,62.17
2018-09-04T17:00:18.040Z,62.62
2018-09-04T17:02:48.116Z,62.06
2018-09-04T17:05:18.100Z,62.27
2018-09-04T17:10:43.695Z,62.98
2018-09-04T17:13:13.723Z,62.63
2018-09-04T17:15:44.040Z,63.71
2018-09-04T17:18:13.960Z,65.32
2018-09-04T17:20:43.887Z,64.95
2018-09-04T17:23:18.200Z,66.03
2018-09-04T17:25:48.263Z,65.30
2018-09-04T17:31:21.145Z,64.31
2018-09-04T17:33:51.530Z,64.94
2018-09-04T17:36:21.693Z,65.58
2018-09-04T17:38:51.688Z,66.09
2018-09-04T17:41:27.128Z,65.08
2018-09-04T17:43:57.941Z,66.12
2018-09-04T17:46:31.384Z,69.61
2018-09-04T17:49:01.346Z,70.35
2018-09-04T17:51:31.292Z,71.62
2018-09-04T17:54:01.191Z,71.22
2018-09-04T17:56:44.557Z,71.46
2018-09-04T17:59:14.899Z,69.77
2018-09-04T18:01:44.816Z,68.74
2018-09-04T18:04:19.326Z,67.92
2018-09-04T18:06:50.881Z,68.82
2018-09-04T18:09:20.808Z,67.67
2018-09-04T18:12:05.213Z,67.87
2018-09-04T18:15:01.148Z,68.24
2018-09-04T18:17:31.182Z,67.95
2018-09-04T18:22:56.529Z,67.71
2018-09-04T18:25:26.473Z,70.21
2018-09-04T18:27:56.822Z,72.17
2018-09-04T18:30:44.845Z,71.60
2018-09-04T18:33:15.026Z,73.60
2018-09-04T18:35:45.493Z,72.05
2018-09-04T18:38:15.403Z,72.31
2018-09-04T18:40:45.339Z,72.74
2018-09-04T18:43:15.121Z,72.32
2018-09-04T18:45:52.383Z,70.45
2018-09-04T18:48:22.241Z,69.20
2018-09-04T18:50:52.221Z,69.18
2018-09-04T18:53:22.053Z,68.46
2018-09-04T18:55:51.945Z,68.39
2018-09-04T18:58:23.070Z,68.45
2018-09-04T19:00:52.885Z,68.85
2018-09-04T19:03:23.125Z,69.31
2018-09-04T19:05:52.925Z,71.74
2018-09-04T19:08:24.812Z,73.95
2018-09-04T19:10:55.251Z,74.88
2018-09-04T19:13:28.763Z,75.50
2018-09-04T19:15:58.897Z,75.13
2018-09-04T19:18:37.907Z,73.47
2018-09-04T19:21:08.973Z,73.89
2018-09-04T19:23:41.069Z,72.15
2018-09-04T19:26:11.147Z,70.72
2018-09-04T19:28:41.712Z,71.23
2018-09-04T19:31:11.630Z,70.92
2018-09-04T19:33:41.440Z,72.09
2018-09-04T19:36:11.379Z,72.26
2018-09-04T19:38:41.341Z,73.85
2018-09-04T19:41:11.315Z,75.38
2018-09-04T19:43:41.276Z,76.36
2018-09-04T19:46:11.281Z,75.19
2018-09-04T19:48:41.143Z,72.69
2018-09-04T19:51:11.111Z,71.76
2018-09-04T19:53:41.623Z,71.26
2018-09-04T19:56:11.432Z,70.82
2018-09-04T19:58:41.308Z,73.60
2018-09-04T20:01:11.926Z,72.56
2018-09-04T20:03:41.740Z,74.22
2018-09-04T20:06:11.911Z,75.34
2018-09-04T20:08:42.527Z,73.18
2018-09-04T20:11:12.428Z,72.71
2018-09-04T20:13:42.708Z,72.11
2018-09-04T20:16:12.479Z,70.92
2018-09-04T20:18:44.872Z,71.22
2018-09-04T20:21:15.838Z,71.51
2018-09-04T20:23:45.784Z,72.88
2018-09-04T20:26:15.756Z,72.17
2018-09-04T20:28:45.835Z,71.73
2018-09-04T20:31:15.655Z,71.58
2018-09-04T20:33:46.531Z,70.97
2018-09-04T20:36:16.518Z,70.83
2018-09-04T20:38:46.556Z,72.36
2018-09-04T20:41:16.496Z,71.66
2018-09-04T20:43:46.631Z,71.65
2018-09-04T20:46:16.642Z,73.94
2018-09-04T20:48:46.620Z,73.81
2018-09-04T20:51:16.491Z,72.80
2018-09-04T20:53:46.625Z,75.14
2018-09-04T20:56:20.796Z,74.12
2018-09-04T20:59:07.154Z,73.39
2018-09-04T21:05:03.764Z,71.95
2018-09-04T21:08:56.451Z,72.24
2018-09-04T21:11:26.414Z,71.84
2018-09-04T21:13:57.314Z,71.22
2018-09-04T21:16:27.336Z,71.90
2018-09-04T21:25:16.499Z,73.27
2018-09-04T21:27:46.487Z,72.36
2018-09-04T21:30:16.532Z,71.90
2018-09-04T21:32:47.302Z,71.85
2018-09-04T21:35:17.335Z,72.78
2018-09-04T21:37:58.551Z,74.33
2018-09-04T21:43:40.518Z,72.85
2018-09-04T21:46:10.622Z,74.54
2018-09-04T21:48:40.753Z,77.10
2018-09-04T21:54:20.109Z,78.20
2018-09-04T21:56:50.486Z,75.24
2018-09-04T21:59:38.668Z,74.50
2018-09-04T22:02:09.174Z,73.83
2018-09-04T22:04:39.500Z,73.32
2018-09-04T22:07:37.835Z,72.53
2018-09-04T22:13:08.602Z,74.40
2018-09-04T22:15:38.601Z,76.03
2018-09-04T22:18:08.704Z,75.24
2018-09-04T22:20:39.197Z,73.77
2018-09-04T22:23:11.005Z,73.14
2018-09-04T22:25:41.360Z,73.98
2018-09-04T22:28:11.529Z,76.86
2018-09-04T22:31:07.255Z,74.74
2018-09-04T22:33:37.359Z,74.86
2018-09-04T22:39:18.068Z,76.44
2018-09-04T22:41:47.992Z,76.21
2018-09-04T22:44:18.060Z,74.47
2018-09-04T22:46:48.793Z,76.08
2018-09-04T22:49:18.740Z,74.67
2018-09-04T22:51:48.781Z,78.83
2018-09-04T22:54:22.114Z,76.23
2018-09-04T22:57:04.793Z,74.53
2018-09-04T22:59:34.779Z,75.05
2018-09-04T23:02:04.834Z,74.02
2018-09-04T23:04:34.844Z,74.34
2018-09-04T23:07:05.015Z,74.08
2018-09-04T23:09:35.034Z,73.53
2018-09-04T23:12:31.130Z,74.04
2018-09-04T23:18:03.585Z,75.97
2018-09-04T23:20:33.607Z,76.70
2018-09-04T23:26:13.277Z,77.16
2018-09-04T23:28:43.309Z,75.63
2018-09-04T23:31:13.568Z,74.52
2018-09-04T23:33:43.885Z,76.26
2018-09-04T23:36:14.192Z,77.73
2018-09-04T23:38:44.306Z,79.70
2018-09-04T23:41:14.810Z,80.88
2018-09-04T23:43:44.980Z,79.91
2018-09-04T23:46:14.979Z,79.84
2018-09-04T23:48:45.039Z,77.41
2018-09-04T23:51:15.208Z,77.13
2018-09-04T23:56:46.384Z,78.69
2018-09-04T23:59:16.635Z,80.18
